Flag for India

Past Weather in 31°48'08"N, 75°13'05"E, India — Yesterday and Last 2 Weeks

Currently: 52 °F. Fog. (Weather station: Amritsar Airport, India). See more current weather

Past Weather in 31°48'08"N, 75°13'05"E — Graph

°F

31°48'08"N, 75°13'05"E Temperature Yesterday

Maximum temperature yesterday: 64 °F (at 1:00 pm)
Minimum temperature yesterday: 39 °F (at 7:00 am)
Average temperature yesterday: 51 °F

High & Low Weather Summary for the Past Weeks

 TemperatureHumidityPressure
High75 °F (Jan 16, 3:30 pm)100% (Jan 12, 11:00 pm)30.18 "Hg (Jan 12, 11:00 pm)
Low36 °F (Jan 14, 4:00 am)27% (Jan 17, 3:00 pm)29.86 "Hg (Jan 12, 3:30 pm)
Average52 °F81%30.04 "Hg
* Reported Jan 12 9:30 am — Jan 27 9:30 am, 31°48'08"N, 75°13'05"E. Weather by CustomWeather, © 2023

Note: Actual official high and low records may vary slightly from our data, if they occured in-between our weather recording intervals... More about our weather records

31°48'08"N, 75°13'05"E Weather History for the Previous 24 Hours

Scroll right to see more
 ConditionsComfort  
Time TempWeatherWind HumidityBarometerVisibility
9:30 am
Fri, Jan 27
48 °FFog.5 mph87%30.18 "Hg1 mi
9:00 am45 °FFog.No wind87%30.15 "Hg1 mi
8:30 am41 °FFog.2 mph93%30.15 "Hg1 mi
8:00 am39 °FFog.No wind93%30.12 "Hg1 mi
7:30 am39 °FFog.2 mph93%30.12 "Hg1 mi
7:00 am39 °FFog.No wind93%30.09 "Hg2 mi
6:30 am39 °FFog.No wind93%30.09 "Hg2 mi
5:00 am41 °FFog.2 mph87%30.09 "Hg2 mi
4:30 am39 °FFog.2 mph87%30.09 "Hg2 mi
3:30 am41 °FFog.No wind93%30.09 "Hg2 mi
3:00 am43 °FFog.No wind87%30.09 "Hg2 mi
2:30 am41 °FFog.2 mph93%30.09 "Hg2 mi
2:00 am43 °FFog.2 mph87%30.09 "Hg2 mi
1:30 am43 °FFog.2 mph87%30.09 "Hg2 mi
12:30 am45 °FFog.3 mph87%30.12 "Hg2 mi
12:00 am45 °FFog.2 mph87%30.12 "Hg2 mi
11:00 pm
Thu, Jan 26
46 °FFog.3 mph82%30.12 "Hg2 mi
10:30 pm46 °FFog.3 mph82%30.12 "Hg2 mi
10:00 pm48 °FFog.5 mph82%30.12 "Hg2 mi
9:30 pm46 °FFog.No wind82%30.12 "Hg2 mi
9:00 pm48 °FFog.3 mph82%30.12 "Hg3 mi
8:30 pm48 °FFog.5 mph82%30.12 "Hg3 mi
7:30 pm52 °FFog.6 mph82%30.09 "Hg3 mi
7:00 pm54 °FHaze.No wind82%30.09 "Hg3 mi
6:30 pm54 °FHaze.No wind82%30.09 "Hg3 mi
5:30 pm59 °FClear.5 mph63%30.09 "Hg4 mi
5:00 pm63 °FClear.5 mph56%30.09 "Hg4 mi
4:30 pm63 °FClear.9 mph49%30.09 "Hg4 mi
4:00 pm64 °FClear.10 mph46%30.09 "Hg4 mi
3:30 pm64 °FClear.12 mph49%30.09 "Hg4 mi
3:00 pm64 °FClear.12 mph46%30.09 "Hg4 mi
2:30 pm64 °FClear.10 mph46%30.09 "Hg4 mi
2:00 pm64 °FHaze.13 mph49%30.12 "Hg3 mi
1:30 pm64 °FHaze.12 mph60%30.12 "Hg3 mi
1:00 pm64 °FHaze.10 mph60%30.12 "Hg3 mi
12:30 pm61 °FHaze.10 mph68%30.15 "Hg2 mi
11:30 am52 °FFog.6 mph88%30.18 "Hg2 mi
11:00 am50 °FFog.5 mph94%30.18 "Hg1 mi
10:30 am48 °FFog.6 mph94%30.18 "Hg1 mi
Weather by CustomWeather, © 2023

See weather overview